sensor_id;sensor_type;location;lat;lon;timestamp;temperature;humidity
30250;DHT22;17064;47.974;13.826;2023-02-28T04:05:13;-3.20;99.90
30250;DHT22;17064;47.974;13.826;2023-02-28T04:10:15;-3.20;99.90
30250;DHT22;17064;47.974;13.826;2023-02-28T04:15:16;-3.20;99.90
30250;DHT22;17064;47.974;13.826;2023-02-28T04:20:17;-3.30;99.90
30250;DHT22;17064;47.974;13.826;2023-02-28T04:25:18;-3.40;99.90
30250;DHT22;17064;47.974;13.826;2023-02-28T04:30:19;-3.40;99.90
30250;DHT22;17064;47.974;13.826;2023-02-28T04:35:19;-3.50;99.90
30250;DHT22;17064;47.974;13.826;2023-02-28T04:40:20;-3.60;99.90
30250;DHT22;17064;47.974;13.826;2023-02-28T04:45:21;-3.60;99.90
30250;DHT22;17064;47.974;13.826;2023-02-28T04:50:22;-3.70;99.90
30250;DHT22;17064;47.974;13.826;2023-02-28T04:55:23;-3.70;99.90
30250;DHT22;17064;47.974;13.826;2023-02-28T05:00:23;-3.80;99.90
30250;DHT22;17064;47.974;13.826;2023-02-28T05:05:24;-3.80;99.90
30250;DHT22;17064;47.974;13.826;2023-02-28T05:10:25;-3.80;99.90
30250;DHT22;17064;47.974;13.826;2023-02-28T05:15:26;-3.80;99.90
30250;DHT22;17064;47.974;13.826;2023-02-28T05:20:26;-3.90;99.90
30250;DHT22;17064;47.974;13.826;2023-02-28T05:25:27;-3.90;99.90
30250;DHT22;17064;47.974;13.826;2023-02-28T05:30:28;-3.90;99.90
30250;DHT22;17064;47.974;13.826;2023-02-28T05:35:28;-3.90;99.90
30250;DHT22;17064;47.974;13.826;2023-02-28T05:40:29;-3.90;99.90
30250;DHT22;17064;47.974;13.826;2023-02-28T05:45:30;-3.90;99.90
30250;DHT22;17064;47.974;13.826;2023-02-28T05:50:30;-3.90;99.90
30250;DHT22;17064;47.974;13.826;2023-02-28T05:55:33;-3.90;99.90
30250;DHT22;17064;47.974;13.826;2023-02-28T06:00:33;-3.80;99.90
30250;DHT22;17064;47.974;13.826;2023-02-28T06:05:34;-3.80;99.90
30250;DHT22;17064;47.974;13.826;2023-02-28T06:10:35;-3.80;99.90
30250;DHT22;17064;47.974;13.826;2023-02-28T06:15:36;-3.80;99.90
30250;DHT22;17064;47.974;13.826;2023-02-28T06:20:36;-3.80;99.90
30250;DHT22;17064;47.974;13.826;2023-02-28T06:25:37;-3.90;99.90
30250;DHT22;17064;47.974;13.826;2023-02-28T06:30:38;-3.90;99.90
30250;DHT22;17064;47.974;13.826;2023-02-28T06:35:39;-3.90;99.90
30250;DHT22;17064;47.974;13.826;2023-02-28T06:40:40;-3.80;99.90
30250;DHT22;17064;47.974;13.826;2023-02-28T06:45:44;-3.70;99.90
30250;DHT22;17064;47.974;13.826;2023-02-28T06:50:45;-3.60;99.90
30250;DHT22;17064;47.974;13.826;2023-02-28T06:55:45;-3.50;99.90
30250;DHT22;17064;47.974;13.826;2023-02-28T07:00:53;-3.40;99.90
30250;DHT22;17064;47.974;13.826;2023-02-28T07:05:54;-3.20;99.90
30250;DHT22;17064;47.974;13.826;2023-02-28T07:10:57;-3.10;99.90
30250;DHT22;17064;47.974;13.826;2023-02-28T07:16:00;-3.10;99.90
30250;DHT22;17064;47.974;13.826;2023-02-28T07:21:03;-3.00;99.90
30250;DHT22;17064;47.974;13.826;2023-02-28T07:26:05;-2.80;99.90
30250;DHT22;17064;47.974;13.826;2023-02-28T07:31:06;-2.70;99.90
30250;DHT22;17064;47.974;13.826;2023-02-28T07:36:13;-2.40;99.90
30250;DHT22;17064;47.974;13.826;2023-02-28T07:41:16;-2.20;99.90
30250;DHT22;17064;47.974;13.826;2023-02-28T07:46:17;-2.00;99.90
30250;DHT22;17064;47.974;13.826;2023-02-28T07:51:22;-1.80;99.90
30250;DHT22;17064;47.974;13.826;2023-02-28T07:56:22;-1.50;99.90
30250;DHT22;17064;47.974;13.826;2023-02-28T08:01:23;-1.40;99.90
30250;DHT22;17064;47.974;13.826;2023-02-28T08:06:25;-1.20;99.90
30250;DHT22;17064;47.974;13.826;2023-02-28T08:11:26;-1.00;99.90
30250;DHT22;17064;47.974;13.826;2023-02-28T08:16:27;-0.80;99.90
30250;DHT22;17064;47.974;13.826;2023-02-28T08:21:28;-0.60;99.90
30250;DHT22;17064;47.974;13.826;2023-02-28T08:26:28;-0.40;99.90
30250;DHT22;17064;47.974;13.826;2023-02-28T08:31:29;-0.40;99.90
30250;DHT22;17064;47.974;13.826;2023-02-28T08:36:30;-0.30;99.90
30250;DHT22;17064;47.974;13.826;2023-02-28T08:41:31;-0.20;99.90
30250;DHT22;17064;47.974;13.826;2023-02-28T08:46:32;-0.20;99.90
30250;DHT22;17064;47.974;13.826;2023-02-28T08:51:33;-0.10;99.90
30250;DHT22;17064;47.974;13.826;2023-02-28T08:56:33;-0.10;99.90
30250;DHT22;17064;47.974;13.826;2023-02-28T09:01:34;-0.20;99.90
30250;DHT22;17064;47.974;13.826;2023-02-28T09:06:36;-0.20;99.90
30250;DHT22;17064;47.974;13.826;2023-02-28T09:11:37;0.00;99.90
30250;DHT22;17064;47.974;13.826;2023-02-28T09:16:38;0.20;99.90
30250;DHT22;17064;47.974;13.826;2023-02-28T09:21:38;0.40;99.90
30250;DHT22;17064;47.974;13.826;2023-02-28T09:26:40;0.50;99.90
30250;DHT22;17064;47.974;13.826;2023-02-28T09:31:40;0.60;99.90
30250;DHT22;17064;47.974;13.826;2023-02-28T09:36:41;0.70;99.90
30250;DHT22;17064;47.974;13.826;2023-02-28T09:41:44;0.80;99.90
30250;DHT22;17064;47.974;13.826;2023-02-28T09:46:57;0.80;99.90
30250;DHT22;17064;47.974;13.826;2023-02-28T09:52:03;1.10;99.90
30250;DHT22;17064;47.974;13.826;2023-02-28T10:08:00;1.60;99.90
30250;DHT22;17064;47.974;13.826;2023-02-28T10:13:06;1.40;99.90
30250;DHT22;17064;47.974;13.826;2023-02-28T10:18:13;1.40;99.90
30250;DHT22;17064;47.974;13.826;2023-02-28T10:23:35;1.90;99.90
30250;DHT22;17064;47.974;13.826;2023-02-28T10:28:36;2.20;99.90
30250;DHT22;17064;47.974;13.826;2023-02-28T10:33:37;2.50;99.90
30250;DHT22;17064;47.974;13.826;2023-02-28T10:38:39;2.70;99.90
30250;DHT22;17064;47.974;13.826;2023-02-28T10:43:41;2.90;99.90
30250;DHT22;17064;47.974;13.826;2023-02-28T10:49:06;2.90;99.90
30250;DHT22;17064;47.974;13.826;2023-02-28T10:54:36;3.10;99.90
30250;DHT22;17064;47.974;13.826;2023-02-28T10:59:37;3.20;99.90
30250;DHT22;17064;47.974;13.826;2023-02-28T11:04:38;3.40;99.90
30250;DHT22;17064;47.974;13.826;2023-02-28T11:09:41;3.30;99.90
30250;DHT22;17064;47.974;13.826;2023-02-28T11:15:23;3.10;99.90
30250;DHT22;17064;47.974;13.826;2023-02-28T11:20:21;3.10;99.90
30250;DHT22;17064;47.974;13.826;2023-02-28T11:25:32;3.60;99.90
30250;DHT22;17064;47.974;13.826;2023-02-28T11:30:38;4.00;99.90
30250;DHT22;17064;47.974;13.826;2023-02-28T11:35:39;4.10;99.90
30250;DHT22;17064;47.974;13.826;2023-02-28T11:51:31;3.90;99.90
30250;DHT22;17064;47.974;13.826;2023-02-28T11:56:47;3.80;99.90
30250;DHT22;17064;47.974;13.826;2023-02-28T12:02:26;4.00;99.90
30250;DHT22;17064;47.974;13.826;2023-02-28T12:18:36;5.50;96.90
30250;DHT22;17064;47.974;13.826;2023-02-28T12:34:31;6.30;94.00
30250;DHT22;17064;47.974;13.826;2023-02-28T12:39:44;6.40;94.20
30250;DHT22;17064;47.974;13.826;2023-02-28T12:45:13;6.70;93.80
30250;DHT22;17064;47.974;13.826;2023-02-28T12:50:16;6.90;93.70
30250;DHT22;17064;47.974;13.826;2023-02-28T12:55:29;6.80;92.30
30250;DHT22;17064;47.974;13.826;2023-02-28T13:00:43;7.20;90.60
30250;DHT22;17064;47.974;13.826;2023-02-28T13:06:08;7.50;90.00
30250;DHT22;17064;47.974;13.826;2023-02-28T13:11:29;7.90;87.00
30250;DHT22;17064;47.974;13.826;2023-02-28T13:27:46;8.60;77.20
30250;DHT22;17064;47.974;13.826;2023-02-28T13:33:24;8.10;79.80
30250;DHT22;17064;47.974;13.826;2023-02-28T13:38:37;8.60;79.10
30250;DHT22;17064;47.974;13.826;2023-02-28T13:49:28;9.10;74.10
30250;DHT22;17064;47.974;13.826;2023-02-28T14:05:19;10.20;69.20
30250;DHT22;17064;47.974;13.826;2023-02-28T14:10:31;10.20;70.00
30250;DHT22;17064;47.974;13.826;2023-02-28T14:20:34;8.10;75.10
30250;DHT22;17064;47.974;13.826;2023-02-28T14:31:19;6.60;83.80
30250;DHT22;17064;47.974;13.826;2023-02-28T14:36:27;6.30;86.20
30250;DHT22;17064;47.974;13.826;2023-02-28T14:41:37;5.80;89.20
30250;DHT22;17064;47.974;13.826;2023-02-28T14:46:40;5.30;90.40
30250;DHT22;17064;47.974;13.826;2023-02-28T14:51:42;5.00;91.70
30250;DHT22;17064;47.974;13.826;2023-02-28T14:56:43;4.70;93.10
30250;DHT22;17064;47.974;13.826;2023-02-28T15:01:43;4.60;94.80
30250;DHT22;17064;47.974;13.826;2023-02-28T15:06:44;4.40;95.60
30250;DHT22;17064;47.974;13.826;2023-02-28T15:11:47;4.30;97.30
30250;DHT22;17064;47.974;13.826;2023-02-28T15:16:55;4.20;99.10
30250;DHT22;17064;47.974;13.826;2023-02-28T15:22:01;4.10;98.90
30250;DHT22;17064;47.974;13.826;2023-02-28T15:27:06;4.00;99.90
30250;DHT22;17064;47.974;13.826;2023-02-28T15:42:29;3.70;99.90
30250;DHT22;17064;47.974;13.826;2023-02-28T15:47:30;3.60;99.90
30250;DHT22;17064;47.974;13.826;2023-02-28T15:52:41;3.60;99.90
30250;DHT22;17064;47.974;13.826;2023-02-28T15:57:44;3.60;99.90
30250;DHT22;17064;47.974;13.826;2023-02-28T16:02:46;3.60;99.90
30250;DHT22;17064;47.974;13.826;2023-02-28T16:07:47;3.50;99.90
30250;DHT22;17064;47.974;13.826;2023-02-28T16:12:49;3.50;99.90
30250;DHT22;17064;47.974;13.826;2023-02-28T16:17:50;3.40;99.90
30250;DHT22;17064;47.974;13.826;2023-02-28T16:22:51;3.30;99.90
30250;DHT22;17064;47.974;13.826;2023-02-28T16:27:52;3.30;99.90
30250;DHT22;17064;47.974;13.826;2023-02-28T16:32:55;3.20;99.90
30250;DHT22;17064;47.974;13.826;2023-02-28T16:37:56;3.10;99.90
30250;DHT22;17064;47.974;13.826;2023-02-28T16:42:58;3.10;99.90
30250;DHT22;17064;47.974;13.826;2023-02-28T16:48:00;3.00;99.90
30250;DHT22;17064;47.974;13.826;2023-02-28T16:53:01;2.90;99.90
30250;DHT22;17064;47.974;13.826;2023-02-28T16:58:03;2.80;99.90
30250;DHT22;17064;47.974;13.826;2023-02-28T17:03:03;2.80;99.90
30250;DHT22;17064;47.974;13.826;2023-02-28T17:08:04;2.80;99.90
30250;DHT22;17064;47.974;13.826;2023-02-28T17:13:05;2.70;99.90
30250;DHT22;17064;47.974;13.826;2023-02-28T17:18:13;2.70;99.90
30250;DHT22;17064;47.974;13.826;2023-02-28T17:23:15;2.70;99.90
30250;DHT22;17064;47.974;13.826;2023-02-28T17:28:16;2.60;99.90
30250;DHT22;17064;47.974;13.826;2023-02-28T17:33:17;2.60;99.90
30250;DHT22;17064;47.974;13.826;2023-02-28T17:38:19;2.60;99.90
30250;DHT22;17064;47.974;13.826;2023-02-28T17:43:26;2.50;99.90
30250;DHT22;17064;47.974;13.826;2023-02-28T17:48:27;2.50;99.90
30250;DHT22;17064;47.974;13.826;2023-02-28T17:53:28;2.50;99.90
30250;DHT22;17064;47.974;13.826;2023-02-28T17:58:29;2.50;99.90
30250;DHT22;17064;47.974;13.826;2023-02-28T18:03:31;2.40;99.90
30250;DHT22;17064;47.974;13.826;2023-02-28T18:08:33;2.40;99.90
30250;DHT22;17064;47.974;13.826;2023-02-28T18:13:35;2.30;99.90
30250;DHT22;17064;47.974;13.826;2023-02-28T18:18:36;2.40;99.90
30250;DHT22;17064;47.974;13.826;2023-02-28T18:23:38;2.40;99.90
30250;DHT22;17064;47.974;13.826;2023-02-28T18:28:47;2.30;99.90
30250;DHT22;17064;47.974;13.826;2023-02-28T18:33:51;2.40;99.90
30250;DHT22;17064;47.974;13.826;2023-02-28T18:38:53;2.30;99.90
30250;DHT22;17064;47.974;13.826;2023-02-28T18:43:55;2.30;99.90
30250;DHT22;17064;47.974;13.826;2023-02-28T18:48:56;2.20;99.90
30250;DHT22;17064;47.974;13.826;2023-02-28T18:53:58;2.20;99.90
30250;DHT22;17064;47.974;13.826;2023-02-28T18:58:59;2.10;99.90
30250;DHT22;17064;47.974;13.826;2023-02-28T19:04:02;2.00;99.90
30250;DHT22;17064;47.974;13.826;2023-02-28T19:09:03;1.90;99.90
30250;DHT22;17064;47.974;13.826;2023-02-28T19:14:04;1.90;99.90
30250;DHT22;17064;47.974;13.826;2023-02-28T19:19:07;1.80;99.90
30250;DHT22;17064;47.974;13.826;2023-02-28T19:24:08;1.80;99.90
30250;DHT22;17064;47.974;13.826;2023-02-28T19:29:09;1.80;99.90
30250;DHT22;17064;47.974;13.826;2023-02-28T19:34:10;1.80;99.90
30250;DHT22;17064;47.974;13.826;2023-02-28T19:39:13;1.70;99.90
30250;DHT22;17064;47.974;13.826;2023-02-28T19:44:14;1.70;99.90
30250;DHT22;17064;47.974;13.826;2023-02-28T19:49:15;1.60;99.90
30250;DHT22;17064;47.974;13.826;2023-02-28T19:54:18;1.60;99.90
30250;DHT22;17064;47.974;13.826;2023-02-28T19:59:20;1.50;99.90
30250;DHT22;17064;47.974;13.826;2023-02-28T20:04:22;1.50;99.90
30250;DHT22;17064;47.974;13.826;2023-02-28T20:09:24;1.50;99.90
30250;DHT22;17064;47.974;13.826;2023-02-28T20:14:25;1.50;99.90
30250;DHT22;17064;47.974;13.826;2023-02-28T20:19:27;1.40;99.90
30250;DHT22;17064;47.974;13.826;2023-02-28T20:24:28;1.40;99.90
30250;DHT22;17064;47.974;13.826;2023-02-28T20:29:30;1.40;99.90
30250;DHT22;17064;47.974;13.826;2023-02-28T20:34:31;1.30;99.90
30250;DHT22;17064;47.974;13.826;2023-02-28T20:39:32;1.30;99.90
30250;DHT22;17064;47.974;13.826;2023-02-28T20:44:33;1.30;99.90
30250;DHT22;17064;47.974;13.826;2023-02-28T20:49:34;1.30;99.90
30250;DHT22;17064;47.974;13.826;2023-02-28T20:54:35;1.20;99.90
30250;DHT22;17064;47.974;13.826;2023-02-28T20:59:36;1.20;99.90
30250;DHT22;17064;47.974;13.826;2023-02-28T21:04:39;1.20;99.90
30250;DHT22;17064;47.974;13.826;2023-02-28T21:09:40;1.20;99.90
30250;DHT22;17064;47.974;13.826;2023-02-28T21:14:41;1.10;99.90
30250;DHT22;17064;47.974;13.826;2023-02-28T21:19:42;1.10;99.90
30250;DHT22;17064;47.974;13.826;2023-02-28T21:24:43;1.10;99.90
30250;DHT22;17064;47.974;13.826;2023-02-28T21:29:43;1.10;99.90
30250;DHT22;17064;47.974;13.826;2023-02-28T21:34:44;1.00;99.90
30250;DHT22;17064;47.974;13.826;2023-02-28T21:39:46;0.90;99.90
30250;DHT22;17064;47.974;13.826;2023-02-28T21:44:46;0.90;99.90
30250;DHT22;17064;47.974;13.826;2023-02-28T21:49:47;0.80;99.90
30250;DHT22;17064;47.974;13.826;2023-02-28T21:54:48;0.80;99.90
30250;DHT22;17064;47.974;13.826;2023-02-28T21:59:49;0.70;99.90
30250;DHT22;17064;47.974;13.826;2023-02-28T22:04:49;0.70;99.90
30250;DHT22;17064;47.974;13.826;2023-02-28T22:09:50;0.60;99.90
30250;DHT22;17064;47.974;13.826;2023-02-28T22:14:51;0.60;99.90
30250;DHT22;17064;47.974;13.826;2023-02-28T22:19:51;0.50;99.90
30250;DHT22;17064;47.974;13.826;2023-02-28T22:24:52;0.50;99.90
30250;DHT22;17064;47.974;13.826;2023-02-28T22:29:56;0.50;99.90
30250;DHT22;17064;47.974;13.826;2023-02-28T22:34:57;0.40;99.90
30250;DHT22;17064;47.974;13.826;2023-02-28T22:39:58;0.40;99.90
30250;DHT22;17064;47.974;13.826;2023-02-28T22:44:58;0.30;99.90
30250;DHT22;17064;47.974;13.826;2023-02-28T22:49:59;0.20;99.90
30250;DHT22;17064;47.974;13.826;2023-02-28T22:55:00;0.30;99.90
30250;DHT22;17064;47.974;13.826;2023-02-28T23:00:03;0.20;99.90
30250;DHT22;17064;47.974;13.826;2023-02-28T23:05:06;0.10;99.90
30250;DHT22;17064;47.974;13.826;2023-02-28T23:10:10;0.00;99.90
30250;DHT22;17064;47.974;13.826;2023-02-28T23:15:11;-0.10;99.90
30250;DHT22;17064;47.974;13.826;2023-02-28T23:20:16;-0.20;99.90
30250;DHT22;17064;47.974;13.826;2023-02-28T23:25:19;-0.40;99.90
30250;DHT22;17064;47.974;13.826;2023-02-28T23:30:20;-0.50;99.90
30250;DHT22;17064;47.974;13.826;2023-02-28T23:35:20;-0.70;99.90
30250;DHT22;17064;47.974;13.826;2023-02-28T23:40:21;-0.90;99.90
30250;DHT22;17064;47.974;13.826;2023-02-28T23:45:22;-0.90;99.90
30250;DHT22;17064;47.974;13.826;2023-02-28T23:50:23;-1.00;99.90
30250;DHT22;17064;47.974;13.826;2023-02-28T23:55:24;-1.10;99.90
